CheckWX is a tool to help pilots better visualize weather data.  It is not intended as a substitute for an official pre-flight weather briefing.

08:01:13 UTC

CYBG TAF
CFB Bagotville Airport
Bagotville, Canada
TAF CYBG 190530Z 1906/2006 27008KT P6SM SCT140 FM190900 27008KT P6SM SCT030 SCT140 TEMPO 1909/1914 BKN030 BECMG 1914/1916 FEW030 FM200300 VRB03KT P6SM SCT040 SCT200 BECMG 2004/2006 18005KT RMK NXT FCST BY 191200Z

Mar-19@
06:00 UTC

Mar-19 @ 06:00 UTC

Mar-19@
09:00 UTC

Mar-19 @ 09:00 UTC

TAF CYBG 190530Z 1906/2006 27008KT P6SM SCT140
Wind
  • 270° at 8 KTS
Cloud Levels
  • Scattered at 14,000' AGL

Mar-19@
09:00 UTC

Mar-19 @ 09:00 UTC

Mar-19@
14:00 UTC

Mar-19 @ 14:00 UTC

FM190900 27008KT P6SM SCT030 SCT140

From

From Standard forecast or significant change

Wind
  • 270° at 8 KTS
Cloud Levels
  • Scattered at 3,000' AGL
  • Scattered at 14,000' AGL

Mar-19@
09:00 UTC

Mar-19 @ 09:00 UTC

Mar-19@
14:00 UTC

Mar-19 @ 14:00 UTC

TEMPO 1909/1914 BKN030

Temporary

Temporary Changes expected for less than half the time period

Cloud Levels
  • Broken at 3,000' AGL

Mar-19@
14:00 UTC

Mar-19 @ 14:00 UTC

Mar-20@
03:00 UTC

Mar-20 @ 03:00 UTC

BECMG 1914/1916 FEW030

Becoming

Becoming Conditions expected by Tue, Mar 19, 2019 @ 16:00 UTC

Wind
  • 270° at 8 KTS
Cloud Levels
  • Few at 3,000' AGL

Mar-20@
03:00 UTC

Mar-20 @ 03:00 UTC

Mar-20@
04:00 UTC

Mar-20 @ 04:00 UTC

FM200300 VRB03KT P6SM SCT040 SCT200

From

From Standard forecast or significant change

Wind
  • Variable at 3 KTS
Cloud Levels
  • Scattered at 4,000' AGL
  • Scattered at 20,000' AGL

Mar-20@
04:00 UTC

Mar-20 @ 04:00 UTC

Mar-20@
06:00 UTC

Mar-20 @ 06:00 UTC

BECMG 2004/2006 18005KT RMK NXT FCST BY 191200Z

Becoming

Becoming Conditions expected by Wed, Mar 20, 2019 @ 06:00 UTC

Wind
  • 180° at 5 KTS
Cloud Levels
  • Scattered at 4,000' AGL
  • Scattered at 20,000' AGL